F\v Desperado — FVFQ — position and weather

sailwx.info

Track history (hours):
 
Tides and Currents Weather Stations Pressure Air Temp Water Temp Dewpoint Dewpoint Depression Visibility Wind Speed Wind Dir Waves Ship Positions

F\v Desperado

Last reported at 2016-Jul-27 06:26 UTC. Time now 2016-Jul-28 08:39 UTC.
Position N 46°45' W 003°19'.

Type: Fishing. MMSI: 228312000.

Date/timePositionNaut miles runAvg speedWind from/ knotsBaromVisibWave heightAir tempDewpointWater temp
2016-Jul-27 06:26N 46°45' W 003°19'31 8.0
2016-Jul-27 02:32N 47°14' W 003°37'8 8.6
2016-Jul-27 01:33N 47°22' W 003°42'8 8.4
2016-Jul-27 00:33N 47°29' W 003°47'  
2016-Jul-24 07:05N 47°53' W 003°55'0 0.0
2016-Jul-24 06:24N 47°53' W 003°55'9 0.3
2016-Jul-23 00:32N 47°44' W 003°50'8 8.5
2016-Jul-22 23:33N 47°37' W 003°45'8 8.4
2016-Jul-22 22:33N 47°29' W 003°40'8 8.1
2016-Jul-22 21:34N 47°22' W 003°35'8 7.9
2016-Jul-22 20:33N 47°14' W 003°31'8 8.1
2016-Jul-22 19:33N 47°07' W 003°26'12 8.0
2016-Jul-22 18:03N 46°56' W 003°19'22 1.1
2016-Jul-21 22:31N 46°36' W 003°05'9 3.0
2016-Jul-21 19:32N 46°31' W 002°54'4 3.1
2016-Jul-21 18:15N 46°27' W 002°54'2 3.3
2016-Jul-21 17:33N 46°25' W 002°54'33 2.3
2016-Jul-21 03:16N 46°20' W 002°06'6 7.9
2016-Jul-21 02:33N 46°23' W 001°59'8 8.0
2016-Jul-21 01:33N 46°27' W 001°49'3 2.8
2016-Jul-21 00:33N 46°30' W 001°47'7 7.2
2016-Jul-20 23:33N 46°25' W 001°55'40 3.0
2016-Jul-20 10:03N 46°08' W 002°48'2 3.2
2016-Jul-20 09:34N 46°10' W 002°47'1 1.1
2016-Jul-20 08:32N 46°10' W 002°45'3 2.9
2016-Jul-20 07:29N 46°09' W 002°41'3 3.7
2016-Jul-20 06:34N 46°10' W 002°36'6 6.1
2016-Jul-20 05:33N 46°12' W 002°28'8 8.5
2016-Jul-20 04:33N 46°17' W 002°17'8 8.2
2016-Jul-20 03:33N 46°20' W 002°07'8 7.7
2016-Jul-20 02:32N 46°24' W 001°57'8 7.7
2016-Jul-20 01:33N 46°28' W 001°48'2 1.8
2016-Jul-20 00:33N 46°30' W 001°47'6 6.3
2016-Jul-19 23:32N 46°26' W 001°54'9 9.4
2016-Jul-19 22:34N 46°21' W 002°06'9 8.7
2016-Jul-19 21:33N 46°17' W 002°17'11 8.0
2016-Jul-19 20:10N 46°12' W 002°31'8 4.2
2016-Jul-19 18:13N 46°10' W 002°42'3 3.4
2016-Jul-19 17:23N 46°09' W 002°46'1 1.3
2016-Jul-19 16:33N 46°09' W 002°48'2 1.5
2016-Jul-19 15:27N 46°10' W 002°46'1 0.3
2016-Jul-19 11:22N 46°11' W 002°48'2 2.9
2016-Jul-19 10:33N 46°13' W 002°47'0 0.1
2016-Jul-19 08:29N 46°13' W 002°47'2 2.5
2016-Jul-19 07:33N 46°12' W 002°50'2 2.0
2016-Jul-19 06:32N 46°13' W 002°47'0 0.2
2016-Jul-19 04:33N 46°13' W 002°48'3 2.6
2016-Jul-19 03:30N 46°16' W 002°49'23 3.8
2016-Jul-18 21:27N 46°32' W 003°12'7 0.8
2016-Jul-18 12:33N 46°37' W 003°19'1 1.3
2016-Jul-18 11:30N 46°38' W 003°20'2 0.4
2016-Jul-18 07:33N 46°39' W 003°17'3 3.2
2016-Jul-18 06:33N 46°42' W 003°18'4 3.4
2016-Jul-18 05:24N 46°46' W 003°17'4 5.0
2016-Jul-18 04:33N 46°50' W 003°20'8 8.1
2016-Jul-18 03:33N 46°57' W 003°25'8 8.3
2016-Jul-18 02:33N 47°05' W 003°30'8 8.1
2016-Jul-18 01:33N 47°12' W 003°35'8 8.2
2016-Jul-18 00:33N 47°20' W 003°40'8 8.1
2016-Jul-17 23:33N 47°27' W 003°45'19 8.2
2016-Jul-17 21:17N 47°44' W 003°55'11 1.9
2016-Jul-17 15:33N 47°33' W 003°53'19 6.0
2016-Jul-17 12:22N 47°15' W 003°48'3 3.4
2016-Jul-17 11:27N 47°12' W 003°45'7 3.4
2016-Jul-17 09:27N 47°07' W 003°38'  
Track history (hours):
 
Tides and Currents Weather Stations Pressure Air Temp Water Temp Dewpoint Dewpoint Depression Visibility Wind Speed Wind Dir Waves Ship Positions

F\v Desperado

Last reported at 2016-Jul-27 06:26 UTC. Time now 2016-Jul-28 08:39 UTC.
Position N 46°45' W 003°19'.

Type: Fishing. MMSI: 228312000.

Date/timePositionNaut miles runAvg speedWind from/ knotsBaromVisibWave heightAir tempDewpointWater temp
2016-Jul-27 06:26N 46°45' W 003°19'31 8.0
2016-Jul-27 02:32N 47°14' W 003°37'8 8.6
2016-Jul-27 01:33N 47°22' W 003°42'8 8.4
2016-Jul-27 00:33N 47°29' W 003°47'  
2016-Jul-24 07:05N 47°53' W 003°55'0 0.0
2016-Jul-24 06:24N 47°53' W 003°55'9 0.3
2016-Jul-23 00:32N 47°44' W 003°50'8 8.5
2016-Jul-22 23:33N 47°37' W 003°45'8 8.4
2016-Jul-22 22:33N 47°29' W 003°40'8 8.1
2016-Jul-22 21:34N 47°22' W 003°35'8 7.9
2016-Jul-22 20:33N 47°14' W 003°31'8 8.1
2016-Jul-22 19:33N 47°07' W 003°26'12 8.0
2016-Jul-22 18:03N 46°56' W 003°19'22 1.1
2016-Jul-21 22:31N 46°36' W 003°05'9 3.0
2016-Jul-21 19:32N 46°31' W 002°54'4 3.1
2016-Jul-21 18:15N 46°27' W 002°54'2 3.3
2016-Jul-21 17:33N 46°25' W 002°54'33 2.3
2016-Jul-21 03:16N 46°20' W 002°06'6 7.9
2016-Jul-21 02:33N 46°23' W 001°59'8 8.0
2016-Jul-21 01:33N 46°27' W 001°49'3 2.8
2016-Jul-21 00:33N 46°30' W 001°47'7 7.2
2016-Jul-20 23:33N 46°25' W 001°55'40 3.0
2016-Jul-20 10:03N 46°08' W 002°48'2 3.2
2016-Jul-20 09:34N 46°10' W 002°47'1 1.1
2016-Jul-20 08:32N 46°10' W 002°45'3 2.9
2016-Jul-20 07:29N 46°09' W 002°41'3 3.7
2016-Jul-20 06:34N 46°10' W 002°36'6 6.1
2016-Jul-20 05:33N 46°12' W 002°28'8 8.5
2016-Jul-20 04:33N 46°17' W 002°17'8 8.2
2016-Jul-20 03:33N 46°20' W 002°07'8 7.7
2016-Jul-20 02:32N 46°24' W 001°57'8 7.7
2016-Jul-20 01:33N 46°28' W 001°48'2 1.8
2016-Jul-20 00:33N 46°30' W 001°47'6 6.3
2016-Jul-19 23:32N 46°26' W 001°54'9 9.4
2016-Jul-19 22:34N 46°21' W 002°06'9 8.7
2016-Jul-19 21:33N 46°17' W 002°17'11 8.0
2016-Jul-19 20:10N 46°12' W 002°31'8 4.2
2016-Jul-19 18:13N 46°10' W 002°42'3 3.4
2016-Jul-19 17:23N 46°09' W 002°46'1 1.3
2016-Jul-19 16:33N 46°09' W 002°48'2 1.5
2016-Jul-19 15:27N 46°10' W 002°46'1 0.3
2016-Jul-19 11:22N 46°11' W 002°48'2 2.9
2016-Jul-19 10:33N 46°13' W 002°47'0 0.1
2016-Jul-19 08:29N 46°13' W 002°47'2 2.5
2016-Jul-19 07:33N 46°12' W 002°50'2 2.0
2016-Jul-19 06:32N 46°13' W 002°47'0 0.2
2016-Jul-19 04:33N 46°13' W 002°48'3 2.6
2016-Jul-19 03:30N 46°16' W 002°49'23 3.8
2016-Jul-18 21:27N 46°32' W 003°12'7 0.8
2016-Jul-18 12:33N 46°37' W 003°19'1 1.3
2016-Jul-18 11:30N 46°38' W 003°20'2 0.4
2016-Jul-18 07:33N 46°39' W 003°17'3 3.2
2016-Jul-18 06:33N 46°42' W 003°18'4 3.4
2016-Jul-18 05:24N 46°46' W 003°17'4 5.0
2016-Jul-18 04:33N 46°50' W 003°20'8 8.1
2016-Jul-18 03:33N 46°57' W 003°25'8 8.3
2016-Jul-18 02:33N 47°05' W 003°30'8 8.1
2016-Jul-18 01:33N 47°12' W 003°35'8 8.2
2016-Jul-18 00:33N 47°20' W 003°40'8 8.1
2016-Jul-17 23:33N 47°27' W 003°45'19 8.2
2016-Jul-17 21:17N 47°44' W 003°55'11 1.9
2016-Jul-17 15:33N 47°33' W 003°53'19 6.0
2016-Jul-17 12:22N 47°15' W 003°48'3 3.4
2016-Jul-17 11:27N 47°12' W 003°45'7 3.4
2016-Jul-17 09:27N 47°07' W 003°38'  

Dump ship's entire track history